首页
METAR-TAF:

METAR-TAF

机场 :

卡尔加里国际机场

卡尔加里, 艾伯塔, 加拿大

纬度: 51-07N, 经度: 114-01W, 海拔: 1077米

当前天气观测

该预报发布于1小时和8分钟前的10:00 UTC
静风
温度 -1°C
湿度 80%
气压 1015 hPa
能見度: 24.1公里
少量云层高于7200英尺

METAR: CYYC 201000Z 00000KT 15SM FEW072 M01/M04 A2997 RMK AC1 SLP186

时间: 05:08 (11:08 UTC)

预报

该预报发布于2小时和29分钟前的08:39 UTC
预报有效从20日的 09点(UTC)到 21日的 06点(UTC)
风速3节,风向多变
能見度: 10公里
散云层高于6000英尺
从 20日的 1200点(UTC)
风速8节,风向南转南东
能見度: 10公里
少量云层高于3000英尺
从 20日的 1800点(UTC)
风速12节,风向南转南东,有时为22节阵风
能見度: 10公里
多云层高于5000英尺
从 21日的 0200点(UTC)
风速8节,风向南转南东
能見度: 10公里
阴天层高于4000英尺

TAF: CYYC 200839Z 2009/2106 VRB03KT P6SM SCT060 FM201200 16008KT P6SM FEW030 FM201800 16012G22KT P6SM BKN050 FM210200 16008KT P6SM OVC040 RMK NXT FCST BY 201200Z

超过4000个机场的气象观测和天气预报(METAR&TAF报告)。

可查询的气象台以黄色和红色小点在地图上表示。

将鼠标移到小点上方,可查看气象台名称。

然后点击查看天气观测和预报。

如需切换地图:点击带黑十字的绿色按钮放大地图;点击带横线的绿色按钮缩小地图;或者点击绿色箭头查看邻近地区的地图。


METAR-TAF: